sensor_id;sensor_type;location;lat;lon;timestamp;temperature;humidity
67364;HTU21D;54250;45.572;38.086;2023-03-23T00:01:09;8.29;79.14
67364;HTU21D;54250;45.572;38.086;2023-03-23T00:03:36;8.32;79.04
67364;HTU21D;54250;45.572;38.086;2023-03-23T00:06:03;8.34;79.07
67364;HTU21D;54250;45.572;38.086;2023-03-23T00:08:32;8.37;79.07
67364;HTU21D;54250;45.572;38.086;2023-03-23T00:10:59;8.41;79.03
67364;HTU21D;54250;45.572;38.086;2023-03-23T00:13:28;8.47;78.98
67364;HTU21D;54250;45.572;38.086;2023-03-23T00:15:54;8.52;78.96
67364;HTU21D;54250;45.572;38.086;2023-03-23T00:18:23;8.58;78.87
67364;HTU21D;54250;45.572;38.086;2023-03-23T00:20:51;8.60;78.78
67364;HTU21D;54250;45.572;38.086;2023-03-23T00:23:18;8.66;78.79
67364;HTU21D;54250;45.572;38.086;2023-03-23T00:25:50;8.70;78.73
67364;HTU21D;54250;45.572;38.086;2023-03-23T00:28:20;8.71;78.69
67364;HTU21D;54250;45.572;38.086;2023-03-23T00:30:59;8.73;78.69
67364;HTU21D;54250;45.572;38.086;2023-03-23T00:33:28;8.71;78.72
67364;HTU21D;54250;45.572;38.086;2023-03-23T00:35:56;8.67;78.85
67364;HTU21D;54250;45.572;38.086;2023-03-23T00:38:23;8.61;78.92
67364;HTU21D;54250;45.572;38.086;2023-03-23T00:40:50;8.57;79.04
67364;HTU21D;54250;45.572;38.086;2023-03-23T00:43:18;8.55;79.11
67364;HTU21D;54250;45.572;38.086;2023-03-23T00:45:44;8.52;79.10
67364;HTU21D;54250;45.572;38.086;2023-03-23T00:48:24;8.53;79.05
67364;HTU21D;54250;45.572;38.086;2023-03-23T00:50:51;8.49;79.07
67364;HTU21D;54250;45.572;38.086;2023-03-23T00:53:18;8.49;79.08
67364;HTU21D;54250;45.572;38.086;2023-03-23T00:55:46;8.50;79.04
67364;HTU21D;54250;45.572;38.086;2023-03-23T00:58:13;8.52;79.04
67364;HTU21D;54250;45.572;38.086;2023-03-23T01:00:39;8.56;78.98
67364;HTU21D;54250;45.572;38.086;2023-03-23T01:03:05;8.61;78.92
67364;HTU21D;54250;45.572;38.086;2023-03-23T01:05:36;8.65;78.85
67364;HTU21D;54250;45.572;38.086;2023-03-23T01:08:03;8.67;78.80
67364;HTU21D;54250;45.572;38.086;2023-03-23T01:10:30;8.71;78.79
67364;HTU21D;54250;45.572;38.086;2023-03-23T01:13:00;8.75;78.68
67364;HTU21D;54250;45.572;38.086;2023-03-23T01:15:28;8.78;78.65
67364;HTU21D;54250;45.572;38.086;2023-03-23T01:17:54;8.82;78.59
67364;HTU21D;54250;45.572;38.086;2023-03-23T01:20:21;8.88;78.54
67364;HTU21D;54250;45.572;38.086;2023-03-23T01:22:47;8.91;78.50
67364;HTU21D;54250;45.572;38.086;2023-03-23T01:25:14;8.94;78.45
67364;HTU21D;54250;45.572;38.086;2023-03-23T01:27:41;8.95;78.45
67364;HTU21D;54250;45.572;38.086;2023-03-23T01:30:10;9.00;78.48
67364;HTU21D;54250;45.572;38.086;2023-03-23T01:32:38;9.01;78.43
67364;HTU21D;54250;45.572;38.086;2023-03-23T01:35:04;9.05;78.51
67364;HTU21D;54250;45.572;38.086;2023-03-23T01:37:31;9.05;78.50
67364;HTU21D;54250;45.572;38.086;2023-03-23T01:39:58;9.09;78.47
67364;HTU21D;54250;45.572;38.086;2023-03-23T01:42:29;9.11;78.47
67364;HTU21D;54250;45.572;38.086;2023-03-23T01:47:55;9.16;78.43
67364;HTU21D;54250;45.572;38.086;2023-03-23T01:50:24;9.19;78.39
67364;HTU21D;54250;45.572;38.086;2023-03-23T01:52:52;9.23;78.40
67364;HTU21D;54250;45.572;38.086;2023-03-23T01:55:20;9.23;78.42
67364;HTU21D;54250;45.572;38.086;2023-03-23T01:57:48;9.29;78.44
67364;HTU21D;54250;45.572;38.086;2023-03-23T02:00:16;9.38;78.43
67364;HTU21D;54250;45.572;38.086;2023-03-23T02:02:51;9.49;78.44
67364;HTU21D;54250;45.572;38.086;2023-03-23T02:05:52;9.56;78.27
67364;HTU21D;54250;45.572;38.086;2023-03-23T02:08:28;9.61;78.27
67364;HTU21D;54250;45.572;38.086;2023-03-23T02:10:55;9.60;78.35
67364;HTU21D;54250;45.572;38.086;2023-03-23T02:13:21;9.60;78.40
67364;HTU21D;54250;45.572;38.086;2023-03-23T02:16:03;9.57;78.36
67364;HTU21D;54250;45.572;38.086;2023-03-23T02:27:11;9.53;78.50
67364;HTU21D;54250;45.572;38.086;2023-03-23T02:35:35;9.47;78.45
67364;HTU21D;54250;45.572;38.086;2023-03-23T02:38:08;9.47;78.48
67364;HTU21D;54250;45.572;38.086;2023-03-23T02:40:45;9.44;78.52
67364;HTU21D;54250;45.572;38.086;2023-03-23T02:43:22;9.45;78.53
67364;HTU21D;54250;45.572;38.086;2023-03-23T02:45:51;9.41;78.65
67364;HTU21D;54250;45.572;38.086;2023-03-23T02:48:20;9.42;78.54
67364;HTU21D;54250;45.572;38.086;2023-03-23T02:50:51;9.41;78.56
67364;HTU21D;54250;45.572;38.086;2023-03-23T02:53:23;9.40;78.55
67364;HTU21D;54250;45.572;38.086;2023-03-23T02:55:53;9.40;78.63
67364;HTU21D;54250;45.572;38.086;2023-03-23T02:58:24;9.37;78.68
67364;HTU21D;54250;45.572;38.086;2023-03-23T03:00:51;9.36;78.75
67364;HTU21D;54250;45.572;38.086;2023-03-23T03:03:23;9.34;78.84
67364;HTU21D;54250;45.572;38.086;2023-03-23T03:06:43;9.30;78.84
67364;HTU21D;54250;45.572;38.086;2023-03-23T03:09:07;9.25;78.98
67364;HTU21D;54250;45.572;38.086;2023-03-23T03:11:45;9.23;79.04
67364;HTU21D;54250;45.572;38.086;2023-03-23T03:14:25;9.22;79.04
67364;HTU21D;54250;45.572;38.086;2023-03-23T03:17:01;9.21;79.17
67364;HTU21D;54250;45.572;38.086;2023-03-23T03:19:40;9.20;79.21
67364;HTU21D;54250;45.572;38.086;2023-03-23T03:22:07;9.20;79.33
67364;HTU21D;54250;45.572;38.086;2023-03-23T03:24:40;9.18;79.41
67364;HTU21D;54250;45.572;38.086;2023-03-23T03:27:16;9.17;79.44
67364;HTU21D;54250;45.572;38.086;2023-03-23T03:30:07;9.14;79.58
67364;HTU21D;54250;45.572;38.086;2023-03-23T03:32:48;9.08;79.72
67364;HTU21D;54250;45.572;38.086;2023-03-23T03:35:23;9.05;79.83
67364;HTU21D;54250;45.572;38.086;2023-03-23T03:37:50;9.02;79.86
67364;HTU21D;54250;45.572;38.086;2023-03-23T03:40:20;9.02;79.90
67364;HTU21D;54250;45.572;38.086;2023-03-23T03:42:46;9.01;79.88
67364;HTU21D;54250;45.572;38.086;2023-03-23T03:45:17;9.00;79.95
67364;HTU21D;54250;45.572;38.086;2023-03-23T03:47:44;9.00;80.02
67364;HTU21D;54250;45.572;38.086;2023-03-23T03:50:10;9.02;79.95
67364;HTU21D;54250;45.572;38.086;2023-03-23T03:52:37;9.06;79.97
67364;HTU21D;54250;45.572;38.086;2023-03-23T03:55:06;9.06;79.87
67364;HTU21D;54250;45.572;38.086;2023-03-23T03:57:34;9.05;79.96
67364;HTU21D;54250;45.572;38.086;2023-03-23T04:00:05;9.10;79.98
67364;HTU21D;54250;45.572;38.086;2023-03-23T04:02:42;9.11;80.01
67364;HTU21D;54250;45.572;38.086;2023-03-23T04:05:10;9.15;79.98
67364;HTU21D;54250;45.572;38.086;2023-03-23T04:07:37;9.19;79.98
67364;HTU21D;54250;45.572;38.086;2023-03-23T04:10:09;9.27;79.91
67364;HTU21D;54250;45.572;38.086;2023-03-23T04:12:37;9.33;79.91
67364;HTU21D;54250;45.572;38.086;2023-03-23T04:15:24;9.37;79.85
67364;HTU21D;54250;45.572;38.086;2023-03-23T04:17:50;9.39;79.88
67364;HTU21D;54250;45.572;38.086;2023-03-23T04:20:16;9.45;79.91
67364;HTU21D;54250;45.572;38.086;2023-03-23T04:22:49;9.51;79.81
67364;HTU21D;54250;45.572;38.086;2023-03-23T04:25:18;9.53;79.68
67364;HTU21D;54250;45.572;38.086;2023-03-23T04:27:51;9.57;79.76
67364;HTU21D;54250;45.572;38.086;2023-03-23T04:30:25;9.63;79.72
67364;HTU21D;54250;45.572;38.086;2023-03-23T04:33:09;9.67;79.65
67364;HTU21D;54250;45.572;38.086;2023-03-23T04:35:44;9.72;79.60
67364;HTU21D;54250;45.572;38.086;2023-03-23T04:38:23;9.79;79.59
67364;HTU21D;54250;45.572;38.086;2023-03-23T04:40:55;9.83;79.54
67364;HTU21D;54250;45.572;38.086;2023-03-23T04:43:34;9.90;79.40
67364;HTU21D;54250;45.572;38.086;2023-03-23T04:46:27;9.95;79.27
67364;HTU21D;54250;45.572;38.086;2023-03-23T04:48:58;10.01;79.27
67364;HTU21D;54250;45.572;38.086;2023-03-23T04:51:29;10.09;79.13
67364;HTU21D;54250;45.572;38.086;2023-03-23T04:54:06;10.21;78.93
67364;HTU21D;54250;45.572;38.086;2023-03-23T04:56:33;10.34;78.75
67364;HTU21D;54250;45.572;38.086;2023-03-23T04:59:05;10.48;78.57
67364;HTU21D;54250;45.572;38.086;2023-03-23T05:01:48;10.65;78.31
67364;HTU21D;54250;45.572;38.086;2023-03-23T05:04:18;10.86;78.00
67364;HTU21D;54250;45.572;38.086;2023-03-23T05:06:58;11.08;77.67
67364;HTU21D;54250;45.572;38.086;2023-03-23T05:09:28;11.30;77.29
67364;HTU21D;54250;45.572;38.086;2023-03-23T05:11:55;11.72;76.69
67364;HTU21D;54250;45.572;38.086;2023-03-23T05:14:21;12.21;75.54
67364;HTU21D;54250;45.572;38.086;2023-03-23T05:16:58;12.31;75.48
67364;HTU21D;54250;45.572;38.086;2023-03-23T05:19:26;12.36;75.31
67364;HTU21D;54250;45.572;38.086;2023-03-23T05:21:58;12.58;75.05
67364;HTU21D;54250;45.572;38.086;2023-03-23T05:24:31;12.79;74.82
67364;HTU21D;54250;45.572;38.086;2023-03-23T05:27:02;13.36;73.77
67364;HTU21D;54250;45.572;38.086;2023-03-23T05:29:32;13.89;72.69
67364;HTU21D;54250;45.572;38.086;2023-03-23T05:32:04;13.93;72.58
67364;HTU21D;54250;45.572;38.086;2023-03-23T05:34:34;13.71;73.15
67364;HTU21D;54250;45.572;38.086;2023-03-23T05:37:03;13.59;73.49
67364;HTU21D;54250;45.572;38.086;2023-03-23T05:39:53;13.60;73.46
67364;HTU21D;54250;45.572;38.086;2023-03-23T05:42:41;14.33;72.17
67364;HTU21D;54250;45.572;38.086;2023-03-23T05:45:15;14.58;71.03
67364;HTU21D;54250;45.572;38.086;2023-03-23T05:47:43;14.49;71.29
67364;HTU21D;54250;45.572;38.086;2023-03-23T05:50:16;14.42;71.67
67364;HTU21D;54250;45.572;38.086;2023-03-23T05:52:43;14.32;71.65
67364;HTU21D;54250;45.572;38.086;2023-03-23T05:55:11;14.14;71.51
67364;HTU21D;54250;45.572;38.086;2023-03-23T05:57:40;14.13;71.46
67364;HTU21D;54250;45.572;38.086;2023-03-23T06:00:21;14.32;71.20
67364;HTU21D;54250;45.572;38.086;2023-03-23T06:02:56;14.70;70.12
67364;HTU21D;54250;45.572;38.086;2023-03-23T06:05:35;15.63;68.49
67364;HTU21D;54250;45.572;38.086;2023-03-23T06:08:02;16.37;66.40
67364;HTU21D;54250;45.572;38.086;2023-03-23T06:10:29;16.51;66.25
67364;HTU21D;54250;45.572;38.086;2023-03-23T06:13:01;16.21;66.35
67364;HTU21D;54250;45.572;38.086;2023-03-23T06:15:32;15.88;66.85
67364;HTU21D;54250;45.572;38.086;2023-03-23T06:18:16;15.69;67.39
67364;HTU21D;54250;45.572;38.086;2023-03-23T06:21:12;15.84;66.95
67364;HTU21D;54250;45.572;38.086;2023-03-23T06:24:16;16.18;66.72
67364;HTU21D;54250;45.572;38.086;2023-03-23T06:26:43;16.24;66.09
67364;HTU21D;54250;45.572;38.086;2023-03-23T06:29:15;16.39;66.31
67364;HTU21D;54250;45.572;38.086;2023-03-23T06:31:48;17.02;64.63
67364;HTU21D;54250;45.572;38.086;2023-03-23T06:34:16;17.17;63.62
67364;HTU21D;54250;45.572;38.086;2023-03-23T06:37:01;17.10;63.53
67364;HTU21D;54250;45.572;38.086;2023-03-23T06:40:06;17.17;63.63
67364;HTU21D;54250;45.572;38.086;2023-03-23T06:42:38;17.33;63.35
67364;HTU21D;54250;45.572;38.086;2023-03-23T06:45:23;17.26;63.57
67364;HTU21D;54250;45.572;38.086;2023-03-23T06:47:56;16.91;63.40
67364;HTU21D;54250;45.572;38.086;2023-03-23T06:50:23;16.61;64.33
67364;HTU21D;54250;45.572;38.086;2023-03-23T06:52:50;16.34;64.31
67364;HTU21D;54250;45.572;38.086;2023-03-23T06:55:18;16.28;64.59
67364;HTU21D;54250;45.572;38.086;2023-03-23T06:57:44;16.44;64.32
67364;HTU21D;54250;45.572;38.086;2023-03-23T07:00:12;16.54;63.77
67364;HTU21D;54250;45.572;38.086;2023-03-23T07:02:40;16.71;63.79
67364;HTU21D;54250;45.572;38.086;2023-03-23T07:05:08;16.99;63.15
67364;HTU21D;54250;45.572;38.086;2023-03-23T07:07:39;17.53;62.31
67364;HTU21D;54250;45.572;38.086;2023-03-23T07:10:28;18.15;61.36
67364;HTU21D;54250;45.572;38.086;2023-03-23T07:12:55;18.37;60.64
67364;HTU21D;54250;45.572;38.086;2023-03-23T07:15:21;19.24;59.29
67364;HTU21D;54250;45.572;38.086;2023-03-23T07:17:50;20.40;56.55
67364;HTU21D;54250;45.572;38.086;2023-03-23T07:20:30;21.99;54.59
67364;HTU21D;54250;45.572;38.086;2023-03-23T07:22:56;22.77;52.98
67364;HTU21D;54250;45.572;38.086;2023-03-23T07:25:39;21.94;53.61
67364;HTU21D;54250;45.572;38.086;2023-03-23T07:28:08;21.52;54.32
67364;HTU21D;54250;45.572;38.086;2023-03-23T07:30:34;21.22;54.76
67364;HTU21D;54250;45.572;38.086;2023-03-23T07:33:04;21.03;54.23
67364;HTU21D;54250;45.572;38.086;2023-03-23T07:35:31;21.10;54.78
67364;HTU21D;54250;45.572;38.086;2023-03-23T07:38:09;21.74;53.55
67364;HTU21D;54250;45.572;38.086;2023-03-23T07:40:36;21.79;53.50
67364;HTU21D;54250;45.572;38.086;2023-03-23T07:43:07;21.32;53.33
67364;HTU21D;54250;45.572;38.086;2023-03-23T07:45:51;20.36;54.42
67364;HTU21D;54250;45.572;38.086;2023-03-23T07:48:19;19.77;55.68
67364;HTU21D;54250;45.572;38.086;2023-03-23T07:50:45;19.25;56.00
67364;HTU21D;54250;45.572;38.086;2023-03-23T07:53:13;19.20;56.61
67364;HTU21D;54250;45.572;38.086;2023-03-23T07:55:41;19.33;56.36
67364;HTU21D;54250;45.572;38.086;2023-03-23T07:58:36;19.68;56.05
67364;HTU21D;54250;45.572;38.086;2023-03-23T08:01:03;20.09;54.59
67364;HTU21D;54250;45.572;38.086;2023-03-23T08:03:32;20.33;53.46
67364;HTU21D;54250;45.572;38.086;2023-03-23T08:06:18;20.90;52.18
67364;HTU21D;54250;45.572;38.086;2023-03-23T08:09:02;21.52;50.59
67364;HTU21D;54250;45.572;38.086;2023-03-23T08:11:52;21.98;49.76
67364;HTU21D;54250;45.572;38.086;2023-03-23T08:14:33;22.37;48.64
67364;HTU21D;54250;45.572;38.086;2023-03-23T08:16:59;22.37;48.02
67364;HTU21D;54250;45.572;38.086;2023-03-23T08:19:44;22.22;48.12
67364;HTU21D;54250;45.572;38.086;2023-03-23T08:22:34;22.01;48.50
67364;HTU21D;54250;45.572;38.086;2023-03-23T08:25:27;21.89;48.89
67364;HTU21D;54250;45.572;38.086;2023-03-23T08:28:22;21.79;48.45
67364;HTU21D;54250;45.572;38.086;2023-03-23T08:30:58;21.53;48.87
67364;HTU21D;54250;45.572;38.086;2023-03-23T08:33:40;21.77;49.52
67364;HTU21D;54250;45.572;38.086;2023-03-23T08:36:21;21.88;49.07
67364;HTU21D;54250;45.572;38.086;2023-03-23T08:39:07;21.63;48.90
67364;HTU21D;54250;45.572;38.086;2023-03-23T08:41:54;21.45;48.99
67364;HTU21D;54250;45.572;38.086;2023-03-23T08:44:40;21.22;49.09
67364;HTU21D;54250;45.572;38.086;2023-03-23T08:47:27;21.39;49.30
67364;HTU21D;54250;45.572;38.086;2023-03-23T08:50:29;21.68;48.98
67364;HTU21D;54250;45.572;38.086;2023-03-23T08:52:59;21.65;49.11
67364;HTU21D;54250;45.572;38.086;2023-03-23T08:55:43;21.64;48.98
67364;HTU21D;54250;45.572;38.086;2023-03-23T08:58:36;21.40;48.70
67364;HTU21D;54250;45.572;38.086;2023-03-23T09:01:03;20.85;49.66
67364;HTU21D;54250;45.572;38.086;2023-03-23T09:03:44;20.65;50.41
67364;HTU21D;54250;45.572;38.086;2023-03-23T09:06:19;20.72;50.21
67364;HTU21D;54250;45.572;38.086;2023-03-23T09:08:45;21.48;49.02
67364;HTU21D;54250;45.572;38.086;2023-03-23T09:11:12;22.76;46.13
67364;HTU21D;54250;45.572;38.086;2023-03-23T09:13:38;23.54;44.29
67364;HTU21D;54250;45.572;38.086;2023-03-23T09:16:06;24.12;43.84
67364;HTU21D;54250;45.572;38.086;2023-03-23T09:18:33;24.64;43.16
67364;HTU21D;54250;45.572;38.086;2023-03-23T09:21:01;24.78;42.94
67364;HTU21D;54250;45.572;38.086;2023-03-23T09:23:29;24.66;42.81
67364;HTU21D;54250;45.572;38.086;2023-03-23T09:25:55;24.82;42.68
67364;HTU21D;54250;45.572;38.086;2023-03-23T09:28:22;25.04;42.16
67364;HTU21D;54250;45.572;38.086;2023-03-23T09:30:48;24.83;41.49
67364;HTU21D;54250;45.572;38.086;2023-03-23T09:33:15;25.09;42.18
67364;HTU21D;54250;45.572;38.086;2023-03-23T09:35:41;25.17;42.01
67364;HTU21D;54250;45.572;38.086;2023-03-23T09:38:09;24.92;41.68
67364;HTU21D;54250;45.572;38.086;2023-03-23T09:41:02;24.79;41.91
67364;HTU21D;54250;45.572;38.086;2023-03-23T09:46:37;23.60;43.57
67364;HTU21D;54250;45.572;38.086;2023-03-23T09:49:25;22.49;45.22
67364;HTU21D;54250;45.572;38.086;2023-03-23T09:54:22;21.82;46.14
67364;HTU21D;54250;45.572;38.086;2023-03-23T09:56:50;21.89;46.06
67364;HTU21D;54250;45.572;38.086;2023-03-23T10:02:21;21.52;47.27
67364;HTU21D;54250;45.572;38.086;2023-03-23T10:04:51;21.51;47.11
67364;HTU21D;54250;45.572;38.086;2023-03-23T10:07:20;21.60;47.29
67364;HTU21D;54250;45.572;38.086;2023-03-23T10:09:53;21.76;47.15
67364;HTU21D;54250;45.572;38.086;2023-03-23T10:15:39;21.46;47.62
67364;HTU21D;54250;45.572;38.086;2023-03-23T10:29:26;19.44;51.45
67364;HTU21D;54250;45.572;38.086;2023-03-23T10:32:00;19.23;52.12
67364;HTU21D;54250;45.572;38.086;2023-03-23T10:34:41;19.05;52.66
67364;HTU21D;54250;45.572;38.086;2023-03-23T10:39:49;19.14;53.08
67364;HTU21D;54250;45.572;38.086;2023-03-23T10:44:55;18.99;53.40
67364;HTU21D;54250;45.572;38.086;2023-03-23T10:47:23;18.78;53.97
67364;HTU21D;54250;45.572;38.086;2023-03-23T10:50:01;18.72;54.33
67364;HTU21D;54250;45.572;38.086;2023-03-23T10:52:42;18.76;54.49
67364;HTU21D;54250;45.572;38.086;2023-03-23T10:55:13;18.74;54.77
67364;HTU21D;54250;45.572;38.086;2023-03-23T10:57:46;18.65;55.08
67364;HTU21D;54250;45.572;38.086;2023-03-23T11:00:26;18.66;55.17
67364;HTU21D;54250;45.572;38.086;2023-03-23T11:03:05;18.62;55.23
67364;HTU21D;54250;45.572;38.086;2023-03-23T11:05:36;18.54;55.45
67364;HTU21D;54250;45.572;38.086;2023-03-23T11:08:04;18.54;55.68
67364;HTU21D;54250;45.572;38.086;2023-03-23T11:10:57;18.58;55.76
67364;HTU21D;54250;45.572;38.086;2023-03-23T11:13:30;18.44;56.19
67364;HTU21D;54250;45.572;38.086;2023-03-23T11:15:56;18.32;56.56
67364;HTU21D;54250;45.572;38.086;2023-03-23T11:18:36;18.25;56.85
67364;HTU21D;54250;45.572;38.086;2023-03-23T11:21:04;18.30;57.39
67364;HTU21D;54250;45.572;38.086;2023-03-23T11:23:36;18.27;58.51
67364;HTU21D;54250;45.572;38.086;2023-03-23T11:28:57;17.84;60.42
67364;HTU21D;54250;45.572;38.086;2023-03-23T11:31:28;17.87;59.83
67364;HTU21D;54250;45.572;38.086;2023-03-23T11:34:01;17.83;59.71
67364;HTU21D;54250;45.572;38.086;2023-03-23T11:36:38;17.25;61.34
67364;HTU21D;54250;45.572;38.086;2023-03-23T11:41:58;17.37;61.18
67364;HTU21D;54250;45.572;38.086;2023-03-23T11:44:34;17.58;60.83
67364;HTU21D;54250;45.572;38.086;2023-03-23T11:47:10;17.75;60.28
67364;HTU21D;54250;45.572;38.086;2023-03-23T11:55:29;18.19;59.64
67364;HTU21D;54250;45.572;38.086;2023-03-23T11:58:00;18.37;59.43
67364;HTU21D;54250;45.572;38.086;2023-03-23T12:00:27;18.47;59.33
67364;HTU21D;54250;45.572;38.086;2023-03-23T12:03:07;18.57;59.09
67364;HTU21D;54250;45.572;38.086;2023-03-23T12:05:58;18.59;58.52
67364;HTU21D;54250;45.572;38.086;2023-03-23T12:08:31;18.56;58.13
67364;HTU21D;54250;45.572;38.086;2023-03-23T12:11:23;18.69;57.96
67364;HTU21D;54250;45.572;38.086;2023-03-23T12:14:16;18.70;57.61
67364;HTU21D;54250;45.572;38.086;2023-03-23T12:22:23;18.52;57.43
67364;HTU21D;54250;45.572;38.086;2023-03-23T12:25:14;18.51;57.36
67364;HTU21D;54250;45.572;38.086;2023-03-23T12:30:32;18.42;57.47
67364;HTU21D;54250;45.572;38.086;2023-03-23T12:48:29;18.33;57.74
67364;HTU21D;54250;45.572;38.086;2023-03-23T12:54:19;18.30;57.72
67364;HTU21D;54250;45.572;38.086;2023-03-23T12:57:24;18.24;57.98
67364;HTU21D;54250;45.572;38.086;2023-03-23T13:00:02;18.19;58.03
67364;HTU21D;54250;45.572;38.086;2023-03-23T13:02:44;18.15;58.22
67364;HTU21D;54250;45.572;38.086;2023-03-23T13:05:29;18.18;58.38
67364;HTU21D;54250;45.572;38.086;2023-03-23T13:08:12;18.19;58.45
67364;HTU21D;54250;45.572;38.086;2023-03-23T13:10:44;18.20;58.64
67364;HTU21D;54250;45.572;38.086;2023-03-23T13:13:16;18.13;58.87
67364;HTU21D;54250;45.572;38.086;2023-03-23T13:18:47;18.07;59.38
67364;HTU21D;54250;45.572;38.086;2023-03-23T13:21:21;18.06;59.54
67364;HTU21D;54250;45.572;38.086;2023-03-23T13:23:58;18.09;59.61
67364;HTU21D;54250;45.572;38.086;2023-03-23T13:26:26;18.11;59.62
67364;HTU21D;54250;45.572;38.086;2023-03-23T13:29:01;18.10;59.47
67364;HTU21D;54250;45.572;38.086;2023-03-23T13:31:38;18.06;59.35
67364;HTU21D;54250;45.572;38.086;2023-03-23T13:34:26;18.04;59.36
67364;HTU21D;54250;45.572;38.086;2023-03-23T13:36:59;17.99;59.49
67364;HTU21D;54250;45.572;38.086;2023-03-23T13:39:31;17.91;59.59
67364;HTU21D;54250;45.572;38.086;2023-03-23T13:54:45;17.74;59.74
67364;HTU21D;54250;45.572;38.086;2023-03-23T13:57:36;17.69;59.87
67364;HTU21D;54250;45.572;38.086;2023-03-23T14:03:13;17.61;60.10
67364;HTU21D;54250;45.572;38.086;2023-03-23T14:10:55;17.43;60.57
67364;HTU21D;54250;45.572;38.086;2023-03-23T14:18:57;17.28;60.93
67364;HTU21D;54250;45.572;38.086;2023-03-23T14:21:39;17.22;61.12
67364;HTU21D;54250;45.572;38.086;2023-03-23T14:24:16;17.17;61.31
67364;HTU21D;54250;45.572;38.086;2023-03-23T14:26:43;17.14;61.42
67364;HTU21D;54250;45.572;38.086;2023-03-23T14:29:12;17.10;61.50
67364;HTU21D;54250;45.572;38.086;2023-03-23T14:31:39;17.04;61.63
67364;HTU21D;54250;45.572;38.086;2023-03-23T14:34:16;17.01;61.74
67364;HTU21D;54250;45.572;38.086;2023-03-23T14:36:43;16.95;61.92
67364;HTU21D;54250;45.572;38.086;2023-03-23T14:39:31;16.90;62.02
67364;HTU21D;54250;45.572;38.086;2023-03-23T14:42:04;16.80;62.24
67364;HTU21D;54250;45.572;38.086;2023-03-23T14:44:39;16.74;62.42
67364;HTU21D;54250;45.572;38.086;2023-03-23T14:47:10;16.67;62.58
67364;HTU21D;54250;45.572;38.086;2023-03-23T14:49:42;16.59;62.88
67364;HTU21D;54250;45.572;38.086;2023-03-23T14:52:15;16.51;63.05
67364;HTU21D;54250;45.572;38.086;2023-03-23T14:54:42;16.43;63.26
67364;HTU21D;54250;45.572;38.086;2023-03-23T14:57:16;16.35;63.41
67364;HTU21D;54250;45.572;38.086;2023-03-23T14:59:48;16.24;63.52
67364;HTU21D;54250;45.572;38.086;2023-03-23T15:02:16;16.16;63.69
67364;HTU21D;54250;45.572;38.086;2023-03-23T15:04:45;16.06;63.97
67364;HTU21D;54250;45.572;38.086;2023-03-23T15:07:13;15.96;64.08
67364;HTU21D;54250;45.572;38.086;2023-03-23T15:09:42;15.89;64.24
67364;HTU21D;54250;45.572;38.086;2023-03-23T15:12:24;15.81;64.50
67364;HTU21D;54250;45.572;38.086;2023-03-23T15:14:59;15.73;64.58
67364;HTU21D;54250;45.572;38.086;2023-03-23T15:17:28;15.65;64.72
67364;HTU21D;54250;45.572;38.086;2023-03-23T15:19:56;15.55;64.80
67364;HTU21D;54250;45.572;38.086;2023-03-23T15:22:25;15.48;64.97
67364;HTU21D;54250;45.572;38.086;2023-03-23T15:25:03;15.42;65.11
67364;HTU21D;54250;45.572;38.086;2023-03-23T15:27:38;15.33;65.17
67364;HTU21D;54250;45.572;38.086;2023-03-23T15:33:04;15.16;65.45
67364;HTU21D;54250;45.572;38.086;2023-03-23T15:35:41;15.07;65.66
67364;HTU21D;54250;45.572;38.086;2023-03-23T15:38:24;14.96;65.78
67364;HTU21D;54250;45.572;38.086;2023-03-23T15:40:53;14.87;66.01
67364;HTU21D;54250;45.572;38.086;2023-03-23T15:43:25;14.80;66.11
67364;HTU21D;54250;45.572;38.086;2023-03-23T15:45:56;14.75;66.16
67364;HTU21D;54250;45.572;38.086;2023-03-23T15:48:26;14.67;66.25
67364;HTU21D;54250;45.572;38.086;2023-03-23T15:50:54;14.56;66.43
67364;HTU21D;54250;45.572;38.086;2023-03-23T15:53:27;14.53;66.50
67364;HTU21D;54250;45.572;38.086;2023-03-23T15:55:53;14.52;66.46
67364;HTU21D;54250;45.572;38.086;2023-03-23T15:58:19;14.51;66.50
67364;HTU21D;54250;45.572;38.086;2023-03-23T16:00:46;14.51;66.52
67364;HTU21D;54250;45.572;38.086;2023-03-23T16:03:18;14.45;66.57
67364;HTU21D;54250;45.572;38.086;2023-03-23T16:05:46;14.39;66.72
67364;HTU21D;54250;45.572;38.086;2023-03-23T16:08:12;14.35;66.81
67364;HTU21D;54250;45.572;38.086;2023-03-23T16:10:39;14.28;66.93
67364;HTU21D;54250;45.572;38.086;2023-03-23T16:13:05;14.26;66.98
67364;HTU21D;54250;45.572;38.086;2023-03-23T16:15:31;14.24;67.02
67364;HTU21D;54250;45.572;38.086;2023-03-23T16:17:58;14.20;67.10
67364;HTU21D;54250;45.572;38.086;2023-03-23T16:20:24;14.08;67.29
67364;HTU21D;54250;45.572;38.086;2023-03-23T16:22:51;13.96;67.53
67364;HTU21D;54250;45.572;38.086;2023-03-23T16:25:17;13.89;67.67
67364;HTU21D;54250;45.572;38.086;2023-03-23T16:27:44;13.85;67.73
67364;HTU21D;54250;45.572;38.086;2023-03-23T16:30:18;13.83;67.70
67364;HTU21D;54250;45.572;38.086;2023-03-23T16:32:45;13.76;67.78
67364;HTU21D;54250;45.572;38.086;2023-03-23T16:35:12;13.69;67.91
67364;HTU21D;54250;45.572;38.086;2023-03-23T16:37:42;13.64;67.98
67364;HTU21D;54250;45.572;38.086;2023-03-23T16:40:10;13.59;68.10
67364;HTU21D;54250;45.572;38.086;2023-03-23T16:42:37;13.53;68.12
67364;HTU21D;54250;45.572;38.086;2023-03-23T16:45:03;13.47;68.26
67364;HTU21D;54250;45.572;38.086;2023-03-23T16:47:29;13.38;68.42
67364;HTU21D;54250;45.572;38.086;2023-03-23T16:49:55;13.32;68.53
67364;HTU21D;54250;45.572;38.086;2023-03-23T16:52:21;13.29;68.58
67364;HTU21D;54250;45.572;38.086;2023-03-23T16:54:47;13.24;68.62
67364;HTU21D;54250;45.572;38.086;2023-03-23T16:57:14;13.23;68.65
67364;HTU21D;54250;45.572;38.086;2023-03-23T16:59:41;13.24;68.63
67364;HTU21D;54250;45.572;38.086;2023-03-23T17:02:09;13.29;68.58
67364;HTU21D;54250;45.572;38.086;2023-03-23T17:04:36;13.27;68.53
67364;HTU21D;54250;45.572;38.086;2023-03-23T17:07:03;13.32;68.54
67364;HTU21D;54250;45.572;38.086;2023-03-23T17:09:29;13.33;68.52
67364;HTU21D;54250;45.572;38.086;2023-03-23T17:11:55;13.32;68.55
67364;HTU21D;54250;45.572;38.086;2023-03-23T17:14:21;13.30;68.62
67364;HTU21D;54250;45.572;38.086;2023-03-23T17:16:47;13.29;68.72
67364;HTU21D;54250;45.572;38.086;2023-03-23T17:19:13;13.25;68.85
67364;HTU21D;54250;45.572;38.086;2023-03-23T17:21:40;13.21;69.01
67364;HTU21D;54250;45.572;38.086;2023-03-23T17:24:07;13.15;69.20
67364;HTU21D;54250;45.572;38.086;2023-03-23T17:26:33;13.09;69.37
67364;HTU21D;54250;45.572;38.086;2023-03-23T17:29:01;13.03;69.54
67364;HTU21D;54250;45.572;38.086;2023-03-23T17:31:27;12.94;69.67
67364;HTU21D;54250;45.572;38.086;2023-03-23T17:33:53;12.87;69.79
67364;HTU21D;54250;45.572;38.086;2023-03-23T17:36:20;12.80;69.91